Time,TemperatureF,DewpointF,PressureIn,WindDirection,WindDirectionDegrees,WindSpeedMPH,WindSpeedGustMPH,Humidity,HourlyPrecipIn,Conditions,Clouds,dailyrainin,SoftwareType,DateUTC
2013-05-24 00:00:00,66.9,66.3,0.00,SSW,207,0.0,4.0,98,0.00,,,0.00,Weather View 32 v70,2013-05-24 04:00:00,
2013-05-24 00:15:00,66.9,66.3,0.00,ESE,113,0.0,4.0,98,0.00,,,0.00,Weather View 32 v70,2013-05-24 04:15:00,
2013-05-24 00:17:00,66.9,66.3,0.00,ESE,113,0.0,4.0,98,0.00,,,0.00,Weather View 32 v70,2013-05-24 04:17:00,
2013-05-24 00:30:00,66.9,66.3,0.00,SW,214,0.0,3.0,98,0.00,,,0.00,Weather View 32 v70,2013-05-24 04:30:00,
2013-05-24 00:45:00,66.0,65.1,0.00,ENE,76,4.0,9.0,97,0.04,,,0.04,Weather View 32 v70,2013-05-24 04:45:00,
2013-05-24 01:00:00,64.4,60.4,0.00,ENE,67,0.0,9.0,87,0.12,,,0.12,Weather View 32 v70,2013-05-24 05:00:00,
2013-05-24 01:15:00,63.9,60.9,0.00,ENE,66,0.0,9.0,90,0.20,,,0.20,Weather View 32 v70,2013-05-24 05:15:00,
2013-05-24 01:30:00,63.5,61.1,0.00,ENE,67,0.0,9.0,92,0.24,,,0.24,Weather View 32 v70,2013-05-24 05:30:00,
2013-05-24 01:45:00,63.5,61.1,0.00,ENE,67,0.0,7.0,92,0.20,,,0.24,Weather View 32 v70,2013-05-24 05:45:00,
2013-05-24 02:00:00,63.3,60.9,0.00,ENE,67,0.0,0.0,92,0.16,,,0.28,Weather View 32 v70,2013-05-24 06:00:00,
2013-05-24 02:15:00,63.1,61.1,0.00,ENE,67,0.0,0.0,93,0.12,,,0.31,Weather View 32 v70,2013-05-24 06:15:00,
2013-05-24 02:30:00,63.1,61.4,0.00,ENE,66,0.0,0.0,94,0.08,,,0.31,Weather View 32 v70,2013-05-24 06:30:00,
2013-05-24 02:45:00,63.0,61.5,0.00,ENE,67,0.0,0.0,95,0.08,,,0.31,Weather View 32 v70,2013-05-24 06:45:00,
2013-05-24 03:00:00,63.0,61.5,0.00,ENE,67,0.0,0.0,95,0.04,,,0.31,Weather View 32 v70,2013-05-24 07:00:00,
2013-05-24 03:15:00,62.8,61.6,0.00,ENE,66,0.0,0.0,96,0.00,,,0.31,Weather View 32 v70,2013-05-24 07:15:00,
2013-05-24 03:30:00,62.8,61.6,0.00,ENE,67,0.0,0.0,96,0.00,,,0.31,Weather View 32 v70,2013-05-24 07:30:00,
2013-05-24 03:45:00,62.4,61.3,0.00,ENE,67,0.0,0.0,96,0.00,,,0.31,Weather View 32 v70,2013-05-24 07:45:00,
2013-05-24 04:00:00,62.6,61.7,0.00,ENE,67,0.0,0.0,97,0.00,,,0.31,Weather View 32 v70,2013-05-24 08:00:00,
2013-05-24 04:15:00,62.4,61.6,0.00,NW,319,0.0,3.0,97,0.00,,,0.31,Weather View 32 v70,2013-05-24 08:15:00,
2013-05-24 04:30:00,62.2,61.4,0.00,NW,319,0.0,3.0,97,0.00,,,0.31,Weather View 32 v70,2013-05-24 08:30:00,
2013-05-24 04:45:00,62.2,61.7,0.00,NW,319,0.0,3.0,98,0.00,,,0.31,Weather View 32 v70,2013-05-24 08:45:00,
2013-05-24 05:00:00,62.2,61.7,0.00,NW,319,0.0,3.0,98,0.00,,,0.31,Weather View 32 v70,2013-05-24 09:00:00,
2013-05-24 05:15:00,62.2,61.7,0.00,NW,319,0.0,3.0,98,0.00,,,0.31,Weather View 32 v70,2013-05-24 09:15:00,
2013-05-24 05:20:00,62.2,61.7,0.00,NW,319,0.0,3.0,98,0.00,,,0.31,Weather View 32 v70,2013-05-24 09:20:00,
2013-05-24 05:30:00,62.2,61.7,0.00,NW,319,0.0,3.0,98,0.00,,,0.31,Weather View 32 v70,2013-05-24 09:30:00,
2013-05-24 05:45:00,62.1,61.5,0.00,NW,319,0.0,3.0,98,0.00,,,0.31,Weather View 32 v70,2013-05-24 09:45:00,
2013-05-24 06:00:00,62.1,61.5,0.00,NW,319,0.0,0.0,98,0.00,,,0.31,Weather View 32 v70,2013-05-24 10:00:00,
2013-05-24 06:15:00,62.1,61.5,0.00,NW,310,0.0,0.0,98,0.00,,,0.31,Weather View 32 v70,2013-05-24 10:15:00,
2013-05-24 06:21:00,62.1,61.5,0.00,NW,310,0.0,0.0,98,0.00,,,0.31,Weather View 32 v70,2013-05-24 10:21:00,
2013-05-24 06:30:00,62.1,61.5,0.00,NW,310,0.0,0.0,98,0.00,,,0.31,Weather View 32 v70,2013-05-24 10:30:00,
2013-05-24 06:45:00,62.4,61.8,0.00,NW,310,0.0,0.0,98,0.00,,,0.31,Weather View 32 v70,2013-05-24 10:45:00,
2013-05-24 07:00:00,62.6,61.7,0.00,NW,310,0.0,0.0,97,0.00,,,0.31,Weather View 32 v70,2013-05-24 11:00:00,
2013-05-24 07:15:00,62.8,61.9,0.00,NW,309,0.0,3.0,97,0.00,,,0.31,Weather View 32 v70,2013-05-24 11:15:00,
2013-05-24 07:21:00,62.8,61.9,0.00,NW,309,0.0,3.0,97,0.00,,,0.31,Weather View 32 v70,2013-05-24 11:21:00,
2013-05-24 07:30:00,63.0,62.1,0.00,NW,309,0.0,3.0,97,0.00,,,0.31,Weather View 32 v70,2013-05-24 11:30:00,
2013-05-24 07:45:00,63.1,62.3,0.00,NW,309,0.0,3.0,97,0.00,,,0.31,Weather View 32 v70,2013-05-24 11:45:00,
2013-05-24 08:00:00,63.3,62.2,0.00,NW,304,0.0,3.0,96,0.00,,,0.31,Weather View 32 v70,2013-05-24 12:00:00,
2013-05-24 08:15:00,63.9,62.7,0.00,NW,304,0.0,3.0,96,0.00,,,0.31,Weather View 32 v70,2013-05-24 12:15:00,
2013-05-24 08:22:00,63.9,62.7,0.00,NW,304,0.0,3.0,96,0.00,,,0.31,Weather View 32 v70,2013-05-24 12:22:00,
2013-05-24 08:30:00,64.0,62.6,0.00,NW,304,0.0,3.0,95,0.00,,,0.31,Weather View 32 v70,2013-05-24 12:30:00,
2013-05-24 08:45:00,64.2,62.1,0.00,NW,304,0.0,2.0,93,0.00,,,0.31,Weather View 32 v70,2013-05-24 12:45:00,
2013-05-24 09:00:00,61.7,56.5,0.00,North,5,0.0,11.0,83,0.04,,,0.35,Weather View 32 v70,2013-05-24 13:00:00,
2013-05-24 09:15:00,58.1,51.6,0.00,WNW,293,4.0,15.0,79,0.04,,,0.35,Weather View 32 v70,2013-05-24 13:15:00,
2013-05-24 09:22:00,58.1,51.6,0.00,WNW,293,4.0,15.0,79,0.04,,,0.35,Weather View 32 v70,2013-05-24 13:22:00,
2013-05-24 09:30:00,56.5,50.7,0.00,WNW,286,3.0,15.0,81,0.04,,,0.35,Weather View 32 v70,2013-05-24 13:30:00,
2013-05-24 09:45:00,56.7,51.5,0.00,NNE,32,0.0,15.0,83,0.04,,,0.35,Weather View 32 v70,2013-05-24 13:45:00,
2013-05-24 10:00:00,56.1,49.0,0.00,WSW,248,0.0,15.0,77,0.00,,,0.35,Weather View 32 v70,2013-05-24 14:00:00,
2013-05-24 10:15:00,56.3,51.2,0.00,North,353,0.0,9.0,83,0.00,,,0.35,Weather View 32 v70,2013-05-24 14:15:00,
2013-05-24 10:23:00,56.3,51.2,0.00,North,353,0.0,9.0,83,0.00,,,0.35,Weather View 32 v70,2013-05-24 14:23:00,
2013-05-24 10:30:00,55.9,47.4,0.00,North,1,4.0,9.0,73,0.00,,,0.35,Weather View 32 v70,2013-05-24 14:30:00,
2013-05-24 10:45:00,56.1,48.3,0.00,ESE,118,6.0,9.0,75,0.00,,,0.35,Weather View 32 v70,2013-05-24 14:45:00,
2013-05-24 11:00:00,56.3,47.0,0.00,WNW,287,0.0,9.0,71,0.00,,,0.35,Weather View 32 v70,2013-05-24 15:00:00,
2013-05-24 11:15:00,55.9,46.3,0.00,North,3,0.0,9.0,70,0.00,,,0.35,Weather View 32 v70,2013-05-24 15:15:00,
2013-05-24 11:23:00,55.9,46.3,0.00,North,3,0.0,9.0,70,0.00,,,0.35,Weather View 32 v70,2013-05-24 15:23:00,
2013-05-24 11:30:00,55.9,45.1,0.00,WSW,243,5.0,9.0,67,0.00,,,0.35,Weather View 32 v70,2013-05-24 15:30:00,
2013-05-24 11:45:00,55.0,41.4,0.00,WNW,294,0.0,9.0,60,0.00,,,0.35,Weather View 32 v70,2013-05-24 15:45:00,
2013-05-24 12:00:00,54.0,40.8,0.00,NNE,26,0.0,11.0,61,0.00,,,0.35,Weather View 32 v70,2013-05-24 16:00:00,
2013-05-24 12:15:00,53.2,41.8,0.00,NW,312,4.0,11.0,65,0.00,,,0.35,Weather View 32 v70,2013-05-24 16:15:00,
2013-05-24 12:24:00,53.2,41.8,0.00,NW,312,4.0,11.0,65,0.00,,,0.35,Weather View 32 v70,2013-05-24 16:24:00,
2013-05-24 12:30:00,52.3,43.9,0.00,ENE,75,0.0,11.0,73,0.00,,,0.35,Weather View 32 v70,2013-05-24 16:30:00,
2013-05-24 12:45:00,50.5,43.9,0.00,WSW,256,3.0,11.0,78,0.00,,,0.35,Weather View 32 v70,2013-05-24 16:45:00,
2013-05-24 13:00:00,50.2,45.5,0.00,ENE,73,3.0,9.0,84,0.04,,,0.39,Weather View 32 v70,2013-05-24 17:00:00,
2013-05-24 13:15:00,49.8,45.5,0.00,NNW,333,0.0,9.0,85,0.08,,,0.43,Weather View 32 v70,2013-05-24 17:15:00,
2013-05-24 13:30:00,49.1,45.4,0.00,North,353,3.0,10.0,87,0.16,,,0.51,Weather View 32 v70,2013-05-24 17:30:00,
2013-05-24 13:45:00,48.9,45.8,0.00,WNW,287,4.0,11.0,89,0.20,,,0.55,Weather View 32 v70,2013-05-24 17:45:00,
2013-05-24 14:00:00,49.8,46.7,0.00,North,349,0.0,11.0,89,0.20,,,0.59,Weather View 32 v70,2013-05-24 18:00:00,
2013-05-24 14:15:00,50.2,46.8,0.00,North,357,2.0,11.0,88,0.16,,,0.59,Weather View 32 v70,2013-05-24 18:15:00,
2013-05-24 14:30:00,50.7,47.6,0.00,NNE,17,0.0,11.0,89,0.08,,,0.59,Weather View 32 v70,2013-05-24 18:30:00,
2013-05-24 14:45:00,50.7,45.7,0.00,NW,309,0.0,8.0,83,0.08,,,0.63,Weather View 32 v70,2013-05-24 18:45:00,
2013-05-24 15:00:00,51.1,47.3,0.00,WNW,282,0.0,8.0,87,0.04,,,0.63,Weather View 32 v70,2013-05-24 19:00:00,
2013-05-24 15:15:00,50.9,47.5,0.00,North,5,2.0,8.0,88,0.04,,,0.63,Weather View 32 v70,2013-05-24 19:15:00,
2013-05-24 15:30:00,50.4,46.9,0.00,North,11,6.0,8.0,88,0.04,,,0.63,Weather View 32 v70,2013-05-24 19:30:00,
2013-05-24 15:45:00,50.0,45.7,0.00,NW,312,3.0,8.0,85,0.00,,,0.63,Weather View 32 v70,2013-05-24 19:45:00,
2013-05-24 16:00:00,50.2,47.1,0.00,NE,36,5.0,8.0,89,0.00,,,0.63,Weather View 32 v70,2013-05-24 20:00:00,
2013-05-24 16:15:00,49.8,45.5,0.00,North,11,4.0,9.0,85,0.04,,,0.67,Weather View 32 v70,2013-05-24 20:15:00,
2013-05-24 16:30:00,49.6,45.3,0.00,NNE,13,0.0,9.0,85,0.04,,,0.67,Weather View 32 v70,2013-05-24 20:30:00,
2013-05-24 16:45:00,49.3,45.9,0.00,NNW,331,4.0,9.0,88,0.04,,,0.67,Weather View 32 v70,2013-05-24 20:45:00,
2013-05-24 17:00:00,48.7,44.7,0.00,North,357,3.0,9.0,86,0.04,,,0.67,Weather View 32 v70,2013-05-24 21:00:00,
2013-05-24 17:15:00,48.6,44.6,0.00,NW,317,3.0,9.0,86,0.04,,,0.71,Weather View 32 v70,2013-05-24 21:15:00,
2013-05-24 17:30:00,48.4,45.0,0.00,NNE,18,4.0,9.0,88,0.04,,,0.71,Weather View 32 v70,2013-05-24 21:30:00,
2013-05-24 17:45:00,48.2,44.5,0.00,NNW,346,4.0,10.0,87,0.04,,,0.71,Weather View 32 v70,2013-05-24 21:45:00,
2013-05-24 18:00:00,47.7,43.7,0.00,NW,317,4.0,10.0,86,0.04,,,0.71,Weather View 32 v70,2013-05-24 22:00:00,
2013-05-24 18:15:00,47.3,42.7,0.00,NNW,341,4.0,10.0,84,0.00,,,0.71,Weather View 32 v70,2013-05-24 22:15:00,
2013-05-24 18:30:00,47.3,43.3,0.00,NNW,327,3.0,10.0,86,0.00,,,0.71,Weather View 32 v70,2013-05-24 22:30:00,
2013-05-24 18:45:00,46.9,42.3,0.00,North,353,4.0,10.0,84,0.00,,,0.71,Weather View 32 v70,2013-05-24 22:45:00,
2013-05-24 19:00:00,46.8,42.2,0.00,WSW,252,4.0,10.0,84,0.00,,,0.71,Weather View 32 v70,2013-05-24 23:00:00,
2013-05-24 19:15:00,46.4,41.8,0.00,NNW,346,4.0,9.0,84,0.00,,,0.71,Weather View 32 v70,2013-05-24 23:15:00,
2013-05-24 19:30:00,46.4,41.8,0.00,NW,315,5.0,9.0,84,0.00,,,0.71,Weather View 32 v70,2013-05-24 23:30:00,
2013-05-24 19:45:00,46.2,42.0,0.00,NNW,338,4.0,9.0,85,0.00,,,0.71,Weather View 32 v70,2013-05-24 23:45:00,
2013-05-24 20:00:00,46.0,41.5,0.00,NNW,334,4.0,8.0,84,0.00,,,0.71,Weather View 32 v70,2013-05-25 00:00:00,
2013-05-24 20:15:00,45.9,39.7,0.00,NNW,334,3.0,11.0,79,0.00,,,0.71,Weather View 32 v70,2013-05-25 00:15:00,
2013-05-24 20:30:00,46.0,40.2,0.00,NNW,333,3.0,11.0,80,0.00,,,0.71,Weather View 32 v70,2013-05-25 00:30:00,
2013-05-24 20:45:00,45.9,38.4,0.00,WNW,288,0.0,11.0,75,0.00,,,0.71,Weather View 32 v70,2013-05-25 00:45:00,
2013-05-24 21:00:00,45.9,39.0,0.00,North,10,3.0,11.0,77,0.00,,,0.71,Weather View 32 v70,2013-05-25 01:00:00,
2013-05-24 21:15:00,46.0,38.5,0.00,North,7,4.0,11.0,75,0.00,,,0.71,Weather View 32 v70,2013-05-25 01:15:00,
2013-05-24 21:30:00,46.2,39.1,0.00,NW,309,0.0,11.0,76,0.00,,,0.71,Weather View 32 v70,2013-05-25 01:30:00,
2013-05-24 21:45:00,46.2,38.7,0.00,North,1,2.0,10.0,75,0.00,,,0.71,Weather View 32 v70,2013-05-25 01:45:00,
2013-05-24 22:00:00,46.4,40.2,0.00,WSW,246,4.0,10.0,79,0.00,,,0.71,Weather View 32 v70,2013-05-25 02:00:00,
2013-05-24 22:15:00,46.2,40.7,0.00,ENE,65,3.0,10.0,81,0.00,,,0.71,Weather View 32 v70,2013-05-25 02:15:00,
2013-05-24 22:30:00,46.0,40.5,0.00,NW,326,2.0,10.0,81,0.00,,,0.71,Weather View 32 v70,2013-05-25 02:30:00,
2013-05-24 22:45:00,46.0,41.2,0.00,NW,305,5.0,6.0,83,0.00,,,0.71,Weather View 32 v70,2013-05-25 02:45:00,
2013-05-24 23:00:00,45.7,38.9,0.00,North,8,2.0,8.0,77,0.00,,,0.71,Weather View 32 v70,2013-05-25 03:00:00,
2013-05-24 23:15:00,45.9,38.7,0.00,West,271,6.0,8.0,76,0.00,,,0.71,Weather View 32 v70,2013-05-25 03:15:00,
2013-05-24 23:30:00,45.7,38.2,0.00,NW,313,3.0,10.0,75,0.00,,,0.71,Weather View 32 v70,2013-05-25 03:30:00,
2013-05-24 23:45:00,45.9,38.7,0.00,North,10,3.0,10.0,76,0.00,,,0.71,Weather View 32 v70,2013-05-25 03:45:00,